sensor_id;sensor_type;location;lat;lon;timestamp;pressure;altitude;pressure_sealevel;temperature;humidity
79527;BME280;68974;47.754;-3.364;2023-08-31T00:02:01;101204.13;;;17.51;75.33
79527;BME280;68974;47.754;-3.364;2023-08-31T00:04:26;101203.59;;;17.27;77.26
79527;BME280;68974;47.754;-3.364;2023-08-31T00:06:52;101204.84;;;17.21;77.88
79527;BME280;68974;47.754;-3.364;2023-08-31T00:09:17;101207.97;;;17.19;78.13
79527;BME280;68974;47.754;-3.364;2023-08-31T00:11:44;101201.06;;;17.17;78.92
79527;BME280;68974;47.754;-3.364;2023-08-31T00:14:09;101210.34;;;17.12;78.95
79527;BME280;68974;47.754;-3.364;2023-08-31T00:16:35;101203.06;;;17.03;80.02
79527;BME280;68974;47.754;-3.364;2023-08-31T00:19:02;101200.41;;;16.98;80.41
79527;BME280;68974;47.754;-3.364;2023-08-31T00:21:27;101199.19;;;17.04;81.01
79527;BME280;68974;47.754;-3.364;2023-08-31T00:23:53;101208.63;;;17.03;81.50
79527;BME280;68974;47.754;-3.364;2023-08-31T00:26:19;101209.25;;;17.00;81.61
79527;BME280;68974;47.754;-3.364;2023-08-31T00:28:46;101202.78;;;17.04;82.38
79527;BME280;68974;47.754;-3.364;2023-08-31T00:31:11;101197.88;;;16.87;83.06
79527;BME280;68974;47.754;-3.364;2023-08-31T00:33:38;101188.53;;;16.83;83.17
79527;BME280;68974;47.754;-3.364;2023-08-31T00:36:03;101191.13;;;16.80;83.97
79527;BME280;68974;47.754;-3.364;2023-08-31T00:38:32;101184.63;;;16.84;84.24
79527;BME280;68974;47.754;-3.364;2023-08-31T00:40:57;101188.53;;;16.83;84.59
79527;BME280;68974;47.754;-3.364;2023-08-31T00:43:23;101177.16;;;16.71;85.12
79527;BME280;68974;47.754;-3.364;2023-08-31T00:45:51;101179.25;;;16.66;85.24
79527;BME280;68974;47.754;-3.364;2023-08-31T00:48:17;101179.72;;;16.68;84.94
79527;BME280;68974;47.754;-3.364;2023-08-31T00:50:46;101172.13;;;16.73;85.22
79527;BME280;68974;47.754;-3.364;2023-08-31T00:53:14;101169.47;;;16.55;85.50
79527;BME280;68974;47.754;-3.364;2023-08-31T00:55:40;101169.28;;;16.65;84.87
79527;BME280;68974;47.754;-3.364;2023-08-31T00:58:06;101169.94;;;16.57;84.93
79527;BME280;68974;47.754;-3.364;2023-08-31T01:09:31;101165.34;;;16.52;85.27
79527;BME280;68974;47.754;-3.364;2023-08-31T01:12:09;101150.69;;;16.52;85.52
79527;BME280;68974;47.754;-3.364;2023-08-31T01:14:51;101161.63;;;16.57;85.62
79527;BME280;68974;47.754;-3.364;2023-08-31T01:17:20;101170.28;;;16.55;85.48
79527;BME280;68974;47.754;-3.364;2023-08-31T01:19:55;101168.94;;;16.53;85.61
79527;BME280;68974;47.754;-3.364;2023-08-31T01:22:30;101163.38;;;16.53;85.54
79527;BME280;68974;47.754;-3.364;2023-08-31T01:24:58;101152.63;;;16.65;85.54
79527;BME280;68974;47.754;-3.364;2023-08-31T01:27:27;101149.13;;;16.59;85.61
79527;BME280;68974;47.754;-3.364;2023-08-31T01:29:54;101146.84;;;16.47;85.41
79527;BME280;68974;47.754;-3.364;2023-08-31T01:32:19;101144.72;;;16.44;85.69
79527;BME280;68974;47.754;-3.364;2023-08-31T01:34:45;101143.59;;;16.45;85.84
79527;BME280;68974;47.754;-3.364;2023-08-31T01:37:14;101144.41;;;16.46;86.17
79527;BME280;68974;47.754;-3.364;2023-08-31T01:39:57;101132.50;;;16.59;85.71
79527;BME280;68974;47.754;-3.364;2023-08-31T01:42:26;101135.16;;;16.51;85.88
79527;BME280;68974;47.754;-3.364;2023-08-31T01:44:54;101131.69;;;16.45;86.60
79527;BME280;68974;47.754;-3.364;2023-08-31T01:47:22;101127.34;;;16.53;86.31
79527;BME280;68974;47.754;-3.364;2023-08-31T01:49:48;101132.19;;;16.61;86.59
79527;BME280;68974;47.754;-3.364;2023-08-31T01:52:13;101130.09;;;16.53;86.78
79527;BME280;68974;47.754;-3.364;2023-08-31T01:54:38;101126.94;;;16.59;86.22
79527;BME280;68974;47.754;-3.364;2023-08-31T01:57:04;101126.22;;;16.54;86.77
79527;BME280;68974;47.754;-3.364;2023-08-31T01:59:31;101116.88;;;16.63;86.21
79527;BME280;68974;47.754;-3.364;2023-08-31T02:01:56;101126.72;;;16.56;87.17
79527;BME280;68974;47.754;-3.364;2023-08-31T02:04:21;101123.97;;;16.56;86.80
79527;BME280;68974;47.754;-3.364;2023-08-31T02:06:47;101123.06;;;16.60;86.90
79527;BME280;68974;47.754;-3.364;2023-08-31T02:09:14;101123.25;;;16.64;87.34
79527;BME280;68974;47.754;-3.364;2023-08-31T02:11:39;101121.00;;;16.66;86.94
79527;BME280;68974;47.754;-3.364;2023-08-31T02:14:05;101116.69;;;16.60;87.34
79527;BME280;68974;47.754;-3.364;2023-08-31T02:16:31;101119.72;;;16.72;87.19
79527;BME280;68974;47.754;-3.364;2023-08-31T02:18:57;101114.16;;;16.72;87.18
79527;BME280;68974;47.754;-3.364;2023-08-31T02:21:22;101104.22;;;16.71;87.28
79527;BME280;68974;47.754;-3.364;2023-08-31T02:23:48;101104.84;;;16.68;86.89
79527;BME280;68974;47.754;-3.364;2023-08-31T02:26:13;101098.34;;;16.72;86.97
79527;BME280;68974;47.754;-3.364;2023-08-31T02:28:39;101105.34;;;16.70;87.34
79527;BME280;68974;47.754;-3.364;2023-08-31T02:31:04;101104.09;;;16.76;87.07
79527;BME280;68974;47.754;-3.364;2023-08-31T02:33:30;101102.81;;;16.82;86.92
79527;BME280;68974;47.754;-3.364;2023-08-31T02:35:55;101102.47;;;16.97;86.31
79527;BME280;68974;47.754;-3.364;2023-08-31T02:38:21;101102.22;;;16.85;86.40
79527;BME280;68974;47.754;-3.364;2023-08-31T02:40:47;101089.47;;;16.84;86.84
79527;BME280;68974;47.754;-3.364;2023-08-31T02:43:13;101090.53;;;16.74;86.99
79527;BME280;68974;47.754;-3.364;2023-08-31T02:45:38;101091.09;;;16.63;87.46
79527;BME280;68974;47.754;-3.364;2023-08-31T02:48:04;101086.47;;;16.58;87.87
79527;BME280;68974;47.754;-3.364;2023-08-31T02:50:31;101086.66;;;16.75;87.34
79527;BME280;68974;47.754;-3.364;2023-08-31T02:52:56;101089.41;;;16.75;87.66
79527;BME280;68974;47.754;-3.364;2023-08-31T02:55:22;101090.66;;;16.69;87.21
79527;BME280;68974;47.754;-3.364;2023-08-31T02:57:48;101089.53;;;16.57;88.07
79527;BME280;68974;47.754;-3.364;2023-08-31T03:00:13;101088.41;;;16.58;88.09
79527;BME280;68974;47.754;-3.364;2023-08-31T03:02:40;101085.59;;;16.71;87.55
79527;BME280;68974;47.754;-3.364;2023-08-31T03:05:05;101085.41;;;16.68;87.45
79527;BME280;68974;47.754;-3.364;2023-08-31T03:07:32;101077.56;;;16.61;87.52
79527;BME280;68974;47.754;-3.364;2023-08-31T03:09:57;101085.06;;;16.61;87.98
79527;BME280;68974;47.754;-3.364;2023-08-31T03:12:23;101086.56;;;16.53;88.11
79527;BME280;68974;47.754;-3.364;2023-08-31T03:14:48;101078.88;;;16.50;88.49
79527;BME280;68974;47.754;-3.364;2023-08-31T03:17:13;101084.53;;;16.59;88.70
79527;BME280;68974;47.754;-3.364;2023-08-31T03:19:39;101080.72;;;16.55;88.69
79527;BME280;68974;47.754;-3.364;2023-08-31T03:22:04;101082.38;;;16.56;88.58
79527;BME280;68974;47.754;-3.364;2023-08-31T03:24:32;101081.53;;;16.69;87.65
79527;BME280;68974;47.754;-3.364;2023-08-31T03:26:57;101074.97;;;16.65;88.58
79527;BME280;68974;47.754;-3.364;2023-08-31T03:29:23;101078.88;;;16.64;88.85
79527;BME280;68974;47.754;-3.364;2023-08-31T03:31:48;101071.19;;;16.61;88.85
79527;BME280;68974;47.754;-3.364;2023-08-31T03:34:13;101070.41;;;16.69;89.12
79527;BME280;68974;47.754;-3.364;2023-08-31T03:36:40;101070.72;;;16.67;88.58
79527;BME280;68974;47.754;-3.364;2023-08-31T03:39:05;101070.41;;;16.69;88.69
79527;BME280;68974;47.754;-3.364;2023-08-31T03:41:31;101066.53;;;16.70;88.88
79527;BME280;68974;47.754;-3.364;2023-08-31T03:43:56;101074.50;;;16.71;89.19
79527;BME280;68974;47.754;-3.364;2023-08-31T03:46:22;101073.59;;;16.76;89.24
79527;BME280;68974;47.754;-3.364;2023-08-31T03:48:47;101074.72;;;16.75;89.55
79527;BME280;68974;47.754;-3.364;2023-08-31T03:51:12;101077.38;;;16.80;89.24
79527;BME280;68974;47.754;-3.364;2023-08-31T03:53:38;101074.59;;;16.80;89.70
79527;BME280;68974;47.754;-3.364;2023-08-31T03:56:03;101075.72;;;16.79;89.58
79527;BME280;68974;47.754;-3.364;2023-08-31T03:58:30;101067.53;;;16.74;89.93
79527;BME280;68974;47.754;-3.364;2023-08-31T04:00:56;101079.63;;;16.78;89.58
79527;BME280;68974;47.754;-3.364;2023-08-31T04:03:21;101065.75;;;16.78;89.55
79527;BME280;68974;47.754;-3.364;2023-08-31T04:05:47;101071.63;;;16.76;89.51
79527;BME280;68974;47.754;-3.364;2023-08-31T04:08:12;101068.94;;;16.85;89.60
79527;BME280;68974;47.754;-3.364;2023-08-31T04:10:38;101068.03;;;16.98;89.72
79527;BME280;68974;47.754;-3.364;2023-08-31T04:13:03;101069.84;;;17.03;89.92
79527;BME280;68974;47.754;-3.364;2023-08-31T04:15:29;101067.38;;;17.01;90.09
79527;BME280;68974;47.754;-3.364;2023-08-31T04:17:56;101064.00;;;17.04;89.79
79527;BME280;68974;47.754;-3.364;2023-08-31T04:20:21;101065.00;;;17.08;89.95
79527;BME280;68974;47.754;-3.364;2023-08-31T04:22:47;101063.09;;;17.17;90.48
79527;BME280;68974;47.754;-3.364;2023-08-31T04:25:13;101067.22;;;17.20;90.08
79527;BME280;68974;47.754;-3.364;2023-08-31T04:27:38;101068.53;;;17.22;90.54
79527;BME280;68974;47.754;-3.364;2023-08-31T04:30:07;101066.00;;;17.35;90.08
79527;BME280;68974;47.754;-3.364;2023-08-31T04:32:33;101073.16;;;17.36;90.51
79527;BME280;68974;47.754;-3.364;2023-08-31T04:34:58;101067.25;;;17.28;91.01
79527;BME280;68974;47.754;-3.364;2023-08-31T04:37:23;101066.13;;;17.29;90.87
79527;BME280;68974;47.754;-3.364;2023-08-31T04:39:49;101072.16;;;17.31;91.14
79527;BME280;68974;47.754;-3.364;2023-08-31T04:42:14;101077.09;;;17.35;90.85
79527;BME280;68974;47.754;-3.364;2023-08-31T04:44:42;101074.81;;;17.37;90.48
79527;BME280;68974;47.754;-3.364;2023-08-31T04:47:07;101075.06;;;17.26;90.78
79527;BME280;68974;47.754;-3.364;2023-08-31T04:49:32;101074.72;;;17.19;90.40
79527;BME280;68974;47.754;-3.364;2023-08-31T04:51:58;101075.34;;;17.16;90.32
79527;BME280;68974;47.754;-3.364;2023-08-31T04:54:24;101081.88;;;17.20;90.34
79527;BME280;68974;47.754;-3.364;2023-08-31T04:56:50;101087.78;;;17.19;89.67
79527;BME280;68974;47.754;-3.364;2023-08-31T04:59:16;101083.78;;;17.11;90.04
79527;BME280;68974;47.754;-3.364;2023-08-31T05:01:41;101084.69;;;16.98;90.26
79527;BME280;68974;47.754;-3.364;2023-08-31T05:04:06;101079.31;;;17.02;90.55
79527;BME280;68974;47.754;-3.364;2023-08-31T05:06:32;101083.69;;;16.94;90.30
79527;BME280;68974;47.754;-3.364;2023-08-31T05:08:57;101083.50;;;16.91;89.87
79527;BME280;68974;47.754;-3.364;2023-08-31T05:11:23;101080.44;;;16.78;90.12
79527;BME280;68974;47.754;-3.364;2023-08-31T05:13:48;101076.97;;;16.73;90.44
79527;BME280;68974;47.754;-3.364;2023-08-31T05:16:14;101087.66;;;16.79;89.55
79527;BME280;68974;47.754;-3.364;2023-08-31T05:18:40;101089.78;;;16.82;89.85
79527;BME280;68974;47.754;-3.364;2023-08-31T05:21:06;101090.31;;;16.84;89.69
79527;BME280;68974;47.754;-3.364;2023-08-31T05:23:31;101107.00;;;16.93;89.78
79527;BME280;68974;47.754;-3.364;2023-08-31T05:25:57;101104.06;;;16.89;89.57
79527;BME280;68974;47.754;-3.364;2023-08-31T05:28:23;101106.31;;;16.87;89.43
79527;BME280;68974;47.754;-3.364;2023-08-31T05:30:53;101108.78;;;16.89;88.96
79527;BME280;68974;47.754;-3.364;2023-08-31T05:33:19;101103.34;;;16.84;89.38
79527;BME280;68974;47.754;-3.364;2023-08-31T05:35:45;101104.47;;;16.83;89.91
79527;BME280;68974;47.754;-3.364;2023-08-31T05:38:11;101104.47;;;16.83;90.26
79527;BME280;68974;47.754;-3.364;2023-08-31T05:40:36;101104.00;;;16.81;89.98
79527;BME280;68974;47.754;-3.364;2023-08-31T05:43:02;101112.81;;;16.83;90.09
79527;BME280;68974;47.754;-3.364;2023-08-31T05:45:31;101117.28;;;16.93;89.96
79527;BME280;68974;47.754;-3.364;2023-08-31T05:47:57;101109.25;;;16.91;90.09
79527;BME280;68974;47.754;-3.364;2023-08-31T05:50:26;101120.00;;;17.06;89.99
79527;BME280;68974;47.754;-3.364;2023-08-31T05:52:51;101124.53;;;17.02;89.68
79527;BME280;68974;47.754;-3.364;2023-08-31T05:55:17;101123.94;;;17.05;89.58
79527;BME280;68974;47.754;-3.364;2023-08-31T05:57:42;101126.19;;;17.03;89.46
79527;BME280;68974;47.754;-3.364;2023-08-31T06:00:08;101122.06;;;17.01;89.63
79527;BME280;68974;47.754;-3.364;2023-08-31T06:02:34;101113.44;;;17.02;89.64
79527;BME280;68974;47.754;-3.364;2023-08-31T06:05:01;101106.25;;;17.01;89.88
79527;BME280;68974;47.754;-3.364;2023-08-31T06:07:26;101120.00;;;17.06;89.93
79527;BME280;68974;47.754;-3.364;2023-08-31T06:09:54;101121.38;;;17.17;89.53
79527;BME280;68974;47.754;-3.364;2023-08-31T06:12:20;101125.28;;;17.16;90.21
79527;BME280;68974;47.754;-3.364;2023-08-31T06:14:45;101119.56;;;17.13;90.25
79527;BME280;68974;47.754;-3.364;2023-08-31T06:17:10;101124.13;;;17.09;89.86
79527;BME280;68974;47.754;-3.364;2023-08-31T06:19:41;101116.28;;;17.11;90.20
79527;BME280;68974;47.754;-3.364;2023-08-31T06:22:07;101116.03;;;17.21;90.17
79527;BME280;68974;47.754;-3.364;2023-08-31T06:24:33;101121.38;;;17.17;90.30
79527;BME280;68974;47.754;-3.364;2023-08-31T06:26:59;101121.13;;;17.27;89.95
79527;BME280;68974;47.754;-3.364;2023-08-31T06:29:25;101123.59;;;17.29;90.34
79527;BME280;68974;47.754;-3.364;2023-08-31T06:31:51;101119.06;;;17.33;90.50
79527;BME280;68974;47.754;-3.364;2023-08-31T06:34:16;101118.41;;;17.36;89.94
79527;BME280;68974;47.754;-3.364;2023-08-31T06:36:42;101124.97;;;17.40;90.23
79527;BME280;68974;47.754;-3.364;2023-08-31T06:39:07;101122.25;;;17.49;89.91
79527;BME280;68974;47.754;-3.364;2023-08-31T06:41:32;101127.16;;;17.52;89.73
79527;BME280;68974;47.754;-3.364;2023-08-31T06:43:58;101137.84;;;17.58;89.50
79527;BME280;68974;47.754;-3.364;2023-08-31T06:46:24;101128.56;;;17.63;89.43
79527;BME280;68974;47.754;-3.364;2023-08-31T06:48:50;101131.84;;;17.65;89.37
79527;BME280;68974;47.754;-3.364;2023-08-31T06:51:15;101131.56;;;17.75;89.19
79527;BME280;68974;47.754;-3.364;2023-08-31T06:53:44;101134.00;;;17.68;89.42
79527;BME280;68974;47.754;-3.364;2023-08-31T06:56:09;101128.91;;;17.70;89.42
79527;BME280;68974;47.754;-3.364;2023-08-31T06:58:34;101137.63;;;17.77;89.73
79527;BME280;68974;47.754;-3.364;2023-08-31T07:01:00;101133.25;;;17.85;89.68
79527;BME280;68974;47.754;-3.364;2023-08-31T07:03:26;101135.25;;;17.93;90.08
79527;BME280;68974;47.754;-3.364;2023-08-31T07:05:51;101136.41;;;18.00;89.98
79527;BME280;68974;47.754;-3.364;2023-08-31T07:08:17;101141.84;;;18.05;90.24
79527;BME280;68974;47.754;-3.364;2023-08-31T07:10:42;101138.06;;;18.01;90.15
79527;BME280;68974;47.754;-3.364;2023-08-31T07:13:08;101140.69;;;17.98;90.58
79527;BME280;68974;47.754;-3.364;2023-08-31T07:15:33;101137.22;;;17.92;90.40
79527;BME280;68974;47.754;-3.364;2023-08-31T07:17:58;101143.75;;;17.96;90.77
79527;BME280;68974;47.754;-3.364;2023-08-31T07:20:24;101156.53;;;17.97;90.71
79527;BME280;68974;47.754;-3.364;2023-08-31T07:22:49;101155.88;;;18.00;90.84
79527;BME280;68974;47.754;-3.364;2023-08-31T07:25:15;101153.22;;;17.95;90.75
79527;BME280;68974;47.754;-3.364;2023-08-31T07:27:40;101157.16;;;17.94;91.22
79527;BME280;68974;47.754;-3.364;2023-08-31T07:30:06;101161.88;;;17.94;91.42
79527;BME280;68974;47.754;-3.364;2023-08-31T07:32:32;101158.63;;;17.92;91.48
79527;BME280;68974;47.754;-3.364;2023-08-31T07:34:57;101160.78;;;18.03;91.17
79527;BME280;68974;47.754;-3.364;2023-08-31T07:37:23;101155.56;;;18.02;91.20
79527;BME280;68974;47.754;-3.364;2023-08-31T07:39:48;101155.41;;;17.98;91.75
79527;BME280;68974;47.754;-3.364;2023-08-31T07:42:14;101153.63;;;18.11;91.28
79527;BME280;68974;47.754;-3.364;2023-08-31T07:44:39;101149.38;;;18.13;91.33
79527;BME280;68974;47.754;-3.364;2023-08-31T07:47:07;101152.97;;;18.14;90.77
79527;BME280;68974;47.754;-3.364;2023-08-31T07:49:32;101159.34;;;18.14;90.90
79527;BME280;68974;47.754;-3.364;2023-08-31T07:51:57;101154.16;;;18.22;90.67
79527;BME280;68974;47.754;-3.364;2023-08-31T07:54:23;101158.22;;;18.15;91.21
79527;BME280;68974;47.754;-3.364;2023-08-31T07:56:49;101160.84;;;18.21;91.53
79527;BME280;68974;47.754;-3.364;2023-08-31T07:59:15;101156.94;;;18.22;91.33
79527;BME280;68974;47.754;-3.364;2023-08-31T08:01:41;101152.53;;;18.29;91.04
79527;BME280;68974;47.754;-3.364;2023-08-31T08:04:06;101153.88;;;18.32;90.48
79527;BME280;68974;47.754;-3.364;2023-08-31T08:06:32;101158.91;;;18.30;90.71
79527;BME280;68974;47.754;-3.364;2023-08-31T08:08:57;101152.56;;;18.38;90.53
79527;BME280;68974;47.754;-3.364;2023-08-31T08:11:22;101159.09;;;18.33;90.64
79527;BME280;68974;47.754;-3.364;2023-08-31T08:13:48;101152.75;;;18.50;90.16
79527;BME280;68974;47.754;-3.364;2023-08-31T08:16:13;101158.69;;;18.57;89.87
79527;BME280;68974;47.754;-3.364;2023-08-31T08:18:40;101153.63;;;18.59;89.46
79527;BME280;68974;47.754;-3.364;2023-08-31T08:21:05;101158.69;;;18.57;88.85
79527;BME280;68974;47.754;-3.364;2023-08-31T08:23:31;101157.38;;;18.54;89.53
79527;BME280;68974;47.754;-3.364;2023-08-31T08:25:56;101161.31;;;18.53;88.91
79527;BME280;68974;47.754;-3.364;2023-08-31T08:28:24;101175.38;;;18.57;89.19
79527;BME280;68974;47.754;-3.364;2023-08-31T08:30:50;101174.22;;;18.58;88.79
79527;BME280;68974;47.754;-3.364;2023-08-31T08:33:15;101177.69;;;18.55;88.82
79527;BME280;68974;47.754;-3.364;2023-08-31T08:35:40;101187.53;;;18.61;88.81
79527;BME280;68974;47.754;-3.364;2023-08-31T08:38:06;101192.56;;;18.59;88.54
79527;BME280;68974;47.754;-3.364;2023-08-31T08:40:32;101183.56;;;18.53;88.74
79527;BME280;68974;47.754;-3.364;2023-08-31T08:43:00;101179.63;;;18.54;88.87
79527;BME280;68974;47.754;-3.364;2023-08-31T08:45:35;101190.44;;;18.56;88.73
79527;BME280;68974;47.754;-3.364;2023-08-31T08:48:07;101181.59;;;18.54;88.69
79527;BME280;68974;47.754;-3.364;2023-08-31T08:50:33;101183.88;;;18.52;89.41
79527;BME280;68974;47.754;-3.364;2023-08-31T08:53:00;101182.59;;;18.58;88.97
79527;BME280;68974;47.754;-3.364;2023-08-31T08:55:27;101193.41;;;18.68;88.93
79527;BME280;68974;47.754;-3.364;2023-08-31T08:57:53;101185.88;;;18.77;88.72
79527;BME280;68974;47.754;-3.364;2023-08-31T09:00:18;101186.91;;;18.81;88.70
79527;BME280;68974;47.754;-3.364;2023-08-31T09:02:44;101190.16;;;18.75;88.01
79527;BME280;68974;47.754;-3.364;2023-08-31T09:05:10;101201.97;;;18.80;88.38
79527;BME280;68974;47.754;-3.364;2023-08-31T09:07:36;101195.88;;;18.78;87.98
79527;BME280;68974;47.754;-3.364;2023-08-31T09:10:02;101199.50;;;18.79;87.88
79527;BME280;68974;47.754;-3.364;2023-08-31T09:12:28;101191.50;;;18.86;88.21
79527;BME280;68974;47.754;-3.364;2023-08-31T09:15:01;101188.53;;;18.99;87.81
79527;BME280;68974;47.754;-3.364;2023-08-31T09:17:37;101190.19;;;19.18;87.86
79527;BME280;68974;47.754;-3.364;2023-08-31T09:20:03;101201.16;;;19.06;86.82
79527;BME280;68974;47.754;-3.364;2023-08-31T09:22:29;101191.16;;;19.04;86.94
79527;BME280;68974;47.754;-3.364;2023-08-31T09:24:55;101188.38;;;18.96;87.66
79527;BME280;68974;47.754;-3.364;2023-08-31T09:27:20;101197.38;;;18.84;87.86
79527;BME280;68974;47.754;-3.364;2023-08-31T09:29:47;101200.63;;;18.86;87.95
79527;BME280;68974;47.754;-3.364;2023-08-31T09:32:18;101196.06;;;19.08;87.92
79527;BME280;68974;47.754;-3.364;2023-08-31T09:34:45;101192.47;;;19.33;86.49
79527;BME280;68974;47.754;-3.364;2023-08-31T09:37:10;101181.66;;;19.40;85.75
79527;BME280;68974;47.754;-3.364;2023-08-31T09:39:37;101190.03;;;19.49;85.16
79527;BME280;68974;47.754;-3.364;2023-08-31T09:42:03;101184.63;;;19.52;84.89
79527;BME280;68974;47.754;-3.364;2023-08-31T09:44:29;101191.47;;;19.72;84.82
79527;BME280;68974;47.754;-3.364;2023-08-31T09:46:54;101195.19;;;19.84;84.74
79527;BME280;68974;47.754;-3.364;2023-08-31T09:49:20;101196.31;;;19.92;84.77
79527;BME280;68974;47.754;-3.364;2023-08-31T09:51:49;101198.59;;;19.99;83.93
79527;BME280;68974;47.754;-3.364;2023-08-31T09:54:19;101202.00;;;20.04;82.83
79527;BME280;68974;47.754;-3.364;2023-08-31T09:56:47;101207.50;;;19.83;82.29
79527;BME280;68974;47.754;-3.364;2023-08-31T09:59:14;101211.09;;;19.93;82.06
79527;BME280;68974;47.754;-3.364;2023-08-31T10:01:43;101203.16;;;20.12;82.74
79527;BME280;68974;47.754;-3.364;2023-08-31T10:04:09;101200.13;;;20.34;80.87
79527;BME280;68974;47.754;-3.364;2023-08-31T10:06:40;101197.78;;;20.95;79.25
79527;BME280;68974;47.754;-3.364;2023-08-31T10:09:06;101201.97;;;21.96;75.62
79527;BME280;68974;47.754;-3.364;2023-08-31T10:11:32;101197.56;;;22.68;70.63
79527;BME280;68974;47.754;-3.364;2023-08-31T10:13:58;101190.19;;;23.40;69.65
79527;BME280;68974;47.754;-3.364;2023-08-31T10:16:27;101186.44;;;23.91;67.13
79527;BME280;68974;47.754;-3.364;2023-08-31T10:18:52;101186.75;;;24.33;65.77
79527;BME280;68974;47.754;-3.364;2023-08-31T10:21:18;101196.28;;;24.29;64.84
79527;BME280;68974;47.754;-3.364;2023-08-31T10:23:45;101191.78;;;23.96;64.55
79527;BME280;68974;47.754;-3.364;2023-08-31T10:26:11;101196.44;;;24.20;65.51
79527;BME280;68974;47.754;-3.364;2023-08-31T10:28:42;101198.88;;;23.62;67.65
79527;BME280;68974;47.754;-3.364;2023-08-31T10:31:17;101210.88;;;22.83;69.58
79527;BME280;68974;47.754;-3.364;2023-08-31T10:33:54;101211.81;;;22.63;70.50
79527;BME280;68974;47.754;-3.364;2023-08-31T10:36:20;101208.19;;;22.26;71.73
79527;BME280;68974;47.754;-3.364;2023-08-31T10:41:23;101218.38;;;22.42;70.87
79527;BME280;68974;47.754;-3.364;2023-08-31T10:43:54;101218.00;;;22.32;69.85
79527;BME280;68974;47.754;-3.364;2023-08-31T10:51:25;101224.53;;;21.25;75.37
79527;BME280;68974;47.754;-3.364;2023-08-31T10:53:50;101231.00;;;20.88;76.75
79527;BME280;68974;47.754;-3.364;2023-08-31T10:56:17;101229.81;;;20.68;77.46
79527;BME280;68974;47.754;-3.364;2023-08-31T10:58:55;101237.47;;;20.50;78.87
79527;BME280;68974;47.754;-3.364;2023-08-31T11:02:09;101226.06;;;20.26;79.21
79527;BME280;68974;47.754;-3.364;2023-08-31T11:07:50;101257.63;;;20.01;81.33
79527;BME280;68974;47.754;-3.364;2023-08-31T11:10:23;101248.34;;;19.71;80.80
79527;BME280;68974;47.754;-3.364;2023-08-31T11:12:50;101240.50;;;19.56;81.49
79527;BME280;68974;47.754;-3.364;2023-08-31T11:15:19;101244.25;;;19.34;82.67
79527;BME280;68974;47.754;-3.364;2023-08-31T11:17:45;101247.03;;;19.42;83.06
79527;BME280;68974;47.754;-3.364;2023-08-31T11:20:16;101245.91;;;19.43;82.65
79527;BME280;68974;47.754;-3.364;2023-08-31T11:22:43;101245.22;;;19.38;82.53
79527;BME280;68974;47.754;-3.364;2023-08-31T11:25:11;101247.00;;;19.85;82.26
79527;BME280;68974;47.754;-3.364;2023-08-31T11:27:37;101247.56;;;20.25;80.39
79527;BME280;68974;47.754;-3.364;2023-08-31T11:30:10;101242.28;;;20.41;80.85
79527;BME280;68974;47.754;-3.364;2023-08-31T11:32:36;101242.75;;;20.43;78.62
79527;BME280;68974;47.754;-3.364;2023-08-31T11:35:01;101255.53;;;20.44;78.33
79527;BME280;68974;47.754;-3.364;2023-08-31T11:37:29;101244.75;;;20.43;78.85
79527;BME280;68974;47.754;-3.364;2023-08-31T11:39:54;101245.53;;;20.43;79.76
79527;BME280;68974;47.754;-3.364;2023-08-31T11:42:21;101246.56;;;20.68;79.35
79527;BME280;68974;47.754;-3.364;2023-08-31T11:44:48;101243.44;;;20.99;77.92
79527;BME280;68974;47.754;-3.364;2023-08-31T11:47:14;101237.09;;;21.52;75.44
79527;BME280;68974;47.754;-3.364;2023-08-31T11:49:41;101240.03;;;22.21;74.40
79527;BME280;68974;47.754;-3.364;2023-08-31T11:52:09;101241.69;;;22.95;69.30
79527;BME280;68974;47.754;-3.364;2023-08-31T11:54:39;101245.53;;;23.43;69.15
79527;BME280;68974;47.754;-3.364;2023-08-31T11:57:09;101237.38;;;23.78;66.56
79527;BME280;68974;47.754;-3.364;2023-08-31T11:59:35;101226.75;;;24.77;64.06
79527;BME280;68974;47.754;-3.364;2023-08-31T12:02:02;101227.97;;;25.30;62.31
79527;BME280;68974;47.754;-3.364;2023-08-31T12:04:32;101245.16;;;26.25;58.52
79527;BME280;68974;47.754;-3.364;2023-08-31T12:07:02;101233.47;;;26.95;57.19
79527;BME280;68974;47.754;-3.364;2023-08-31T12:09:30;101245.72;;;27.06;54.33
79527;BME280;68974;47.754;-3.364;2023-08-31T12:11:55;101240.91;;;27.06;53.39
79527;BME280;68974;47.754;-3.364;2023-08-31T12:14:25;101239.63;;;26.78;54.33
79527;BME280;68974;47.754;-3.364;2023-08-31T12:16:52;101235.19;;;27.63;53.69
79527;BME280;68974;47.754;-3.364;2023-08-31T12:19:18;101231.44;;;28.22;52.03
79527;BME280;68974;47.754;-3.364;2023-08-31T12:21:45;101238.09;;;28.43;50.87
79527;BME280;68974;47.754;-3.364;2023-08-31T12:24:12;101227.50;;;28.81;49.00
79527;BME280;68974;47.754;-3.364;2023-08-31T12:26:37;101242.22;;;29.08;46.20
79527;BME280;68974;47.754;-3.364;2023-08-31T12:29:03;101231.91;;;29.37;46.66
79527;BME280;68974;47.754;-3.364;2023-08-31T12:31:32;101226.88;;;29.95;46.51
79527;BME280;68974;47.754;-3.364;2023-08-31T12:33:58;101237.69;;;29.72;45.66
79527;BME280;68974;47.754;-3.364;2023-08-31T12:36:24;101239.16;;;29.38;44.68
79527;BME280;68974;47.754;-3.364;2023-08-31T12:38:49;101245.38;;;28.96;44.73
79527;BME280;68974;47.754;-3.364;2023-08-31T12:41:14;101244.00;;;29.34;46.09
79527;BME280;68974;47.754;-3.364;2023-08-31T12:43:40;101248.63;;;28.98;44.49
79527;BME280;68974;47.754;-3.364;2023-08-31T12:46:05;101255.50;;;29.00;45.20
79527;BME280;68974;47.754;-3.364;2023-08-31T12:48:33;101250.59;;;29.59;45.78
79527;BME280;68974;47.754;-3.364;2023-08-31T12:50:59;101253.00;;;28.40;45.63
79527;BME280;68974;47.754;-3.364;2023-08-31T12:53:24;101254.22;;;27.39;48.89
79527;BME280;68974;47.754;-3.364;2023-08-31T12:55:50;101252.38;;;27.21;49.75
79527;BME280;68974;47.754;-3.364;2023-08-31T12:58:16;101245.69;;;26.53;50.75